Terminal Aerodrome Forecast
Issued by NWS

Home | Current Version | Previous Version | Text Only | Print | Product List | Glossary On
Versions: 1 2 3 4 5 6 7 8 9 10 11 12 13 14 15 16 17 18 19 20 21 22 23 24 25 26
000
FTUS46 KMTR 061130
TAFSFO
TAF
KSFO 061130Z 0612/0718 24007KT P6SM OVC012
     FM061830 21008KT P6SM SCT012 SCT250
     FM062000 28006KT P6SM FEW012 SCT250
     FM062100 25016G21KT P6SM FEW012 SCT250
     FM070400 26012KT P6SM BKN015
     FM070800 26008KT P6SM OVC010=

USA.gov is the U.S. government's official web portal to all federal, state and local government web resources and services.